Time;durP1;ratioP1;P1;durP2;ratioP2;P2;SDS_P1;SDS_P2;PMS_P1;PMS_P2;Temp;Humidity;BMP_temperature;BMP_pressure;BME280_temperature;BME280_humidity;BME280_pressure;Samples;Min_cycle;Max_cycle;Signal;HPM_P1;HPM_P2
2023/07/25 00:00:40;;;;;;;8.45;2.17;;;15.00;99.90;;;;;;5087093;28;20234;-69
2023/07/25 00:03:08;;;;;;;10.55;2.20;;;15.00;99.90;;;;;;5083212;28;20227;-69
2023/07/25 00:05:36;;;;;;;5.63;2.13;;;14.90;99.90;;;;;;5082852;28;20226;-72
2023/07/25 00:08:03;;;;;;;6.68;2.42;;;14.90;99.90;;;;;;5088928;28;20219;-69
2023/07/25 00:10:29;;;;;;;9.20;2.42;;;14.80;99.90;;;;;;5088867;28;20243;-70
2023/07/25 00:12:56;;;;;;;6.43;2.50;;;14.80;99.90;;;;;;5092543;28;20196;-69
2023/07/25 00:15:23;;;;;;;5.20;2.38;;;14.80;99.90;;;;;;5071459;28;20227;-69
2023/07/25 00:17:50;;;;;;;4.25;2.15;;;14.80;99.90;;;;;;5091377;28;20218;-69
2023/07/25 00:20:19;;;;;;;4.35;2.33;;;14.80;99.90;;;;;;5088164;28;20667;-69
2023/07/25 00:22:45;;;;;;;7.63;2.40;;;14.70;99.90;;;;;;5088961;28;20199;-69
2023/07/25 00:25:12;;;;;;;8.13;2.75;;;14.70;99.90;;;;;;5095721;28;20216;-69
2023/07/25 00:27:39;;;;;;;5.70;2.28;;;14.70;99.90;;;;;;5087616;28;20275;-69
2023/07/25 00:30:07;;;;;;;5.53;2.30;;;15.10;99.90;;;;;;5072024;28;21095;-69
2023/07/25 00:32:35;;;;;;;10.13;2.45;;;14.80;99.90;;;;;;5090405;27;20212;-69
2023/07/25 00:35:02;;;;;;;6.88;2.40;;;14.80;99.90;;;;;;5090907;28;20219;-69
2023/07/25 00:37:31;;;;;;;5.53;2.13;;;14.80;99.90;;;;;;5092671;28;21468;-69
2023/07/25 00:39:58;;;;;;;10.23;2.38;;;14.70;99.90;;;;;;5079178;28;20761;-69
2023/07/25 00:42:25;;;;;;;7.53;2.50;;;14.70;99.90;;;;;;5093524;28;20202;-69
2023/07/25 00:44:52;;;;;;;5.35;2.20;;;14.10;99.90;;;;;;5066532;28;25296;-69
2023/07/25 00:47:19;;;;;;;7.25;2.17;;;14.70;99.90;;;;;;5095382;28;20204;-69
2023/07/25 00:49:47;;;;;;;9.57;2.28;;;14.70;99.90;;;;;;5090508;28;20195;-68
2023/07/25 00:52:14;;;;;;;5.63;2.28;;;14.70;99.90;;;;;;5096265;28;20620;-69
2023/07/25 00:54:50;;;;;;;9.82;2.75;;;14.10;99.90;;;;;;5085072;28;20202;-70
2023/07/25 00:57:19;;;;;;;4.10;2.33;;;14.70;99.90;;;;;;5090207;28;20788;-69
2023/07/25 00:59:46;;;;;;;9.50;2.60;;;14.60;99.90;;;;;;5087482;28;20903;-69
2023/07/25 01:02:15;;;;;;;5.43;2.40;;;14.60;99.90;;;;;;5071076;28;20230;-69
2023/07/25 01:04:43;;;;;;;3.25;2.20;;;14.50;99.90;;;;;;5088414;28;20548;-69
2023/07/25 01:07:13;;;;;;;4.07;2.55;;;14.60;99.90;;;;;;5089392;28;20207;-69
2023/07/25 01:09:43;;;;;;;6.68;2.67;;;14.40;99.90;;;;;;5092121;28;20199;-69
2023/07/25 01:12:11;;;;;;;4.78;2.00;;;14.40;99.90;;;;;;5087565;28;20700;-69
2023/07/25 01:14:39;;;;;;;4.82;2.63;;;14.30;99.90;;;;;;5088744;28;20207;-69
2023/07/25 01:17:10;;;;;;;8.60;2.60;;;14.30;99.90;;;;;;5071427;28;20228;-69
2023/07/25 01:19:39;;;;;;;3.03;2.20;;;14.50;99.90;;;;;;5090329;28;20253;-72
2023/07/25 01:22:06;;;;;;;6.25;2.42;;;14.30;99.90;;;;;;5093915;28;20199;-69
2023/07/25 01:24:35;;;;;;;10.73;3.22;;;;;;;;;;5090187;28;20196;-69
2023/07/25 01:27:02;;;;;;;3.70;2.40;;;14.30;99.90;;;;;;5089419;28;20226;-69
2023/07/25 01:29:29;;;;;;;7.22;2.85;;;14.30;99.90;;;;;;5093429;28;20633;-69
2023/07/25 01:31:57;;;;;;;8.05;2.70;;;14.30;99.90;;;;;;5088216;28;20303;-69
2023/07/25 01:34:24;;;;;;;6.10;2.60;;;14.30;99.90;;;;;;5070327;28;20736;-69
2023/07/25 01:36:50;;;;;;;7.97;2.97;;;14.20;99.90;;;;;;5088537;28;20916;-69
2023/07/25 01:39:17;;;;;;;5.97;2.38;;;14.10;99.90;;;;;;5084424;28;20231;-69
2023/07/25 01:41:46;;;;;;;8.73;2.55;;;14.20;99.90;;;;;;5094507;28;20195;-69
2023/07/25 01:44:13;;;;;;;6.07;3.00;;;13.90;99.90;;;;;;5088334;28;20200;-69
2023/07/25 01:46:41;;;;;;;4.47;2.30;;;14.10;99.90;;;;;;5089980;28;20219;-69
2023/07/25 01:49:09;;;;;;;11.63;3.00;;;14.20;99.90;;;;;;5072934;28;20478;-69
2023/07/25 01:51:36;;;;;;;5.35;2.97;;;14.10;99.90;;;;;;5091082;28;20211;-69
2023/07/25 01:54:03;;;;;;;11.48;3.15;;;14.10;99.90;;;;;;5087086;28;20221;-72
2023/07/25 01:56:29;;;;;;;5.10;2.30;;;14.30;99.90;;;;;;5087384;28;20231;-69
2023/07/25 01:58:58;;;;;;;8.05;2.53;;;14.10;99.90;;;;;;5090882;28;20591;-69
2023/07/25 02:01:24;;;;;;;7.97;2.85;;;14.10;99.90;;;;;;5085895;28;20223;-68
2023/07/25 02:03:51;;;;;;;10.93;3.25;;;14.10;99.90;;;;;;5092865;28;21296;-69
2023/07/25 02:06:18;;;;;;;8.65;2.97;;;14.20;99.90;;;;;;5059077;28;20207;-69
2023/07/25 02:08:45;;;;;;;4.88;2.40;;;14.10;99.90;;;;;;5093088;28;20323;-68
2023/07/25 02:11:12;;;;;;;5.30;2.42;;;;;;;;;;5088526;28;20652;-70
2023/07/25 02:13:39;;;;;;;4.97;2.88;;;14.10;99.90;;;;;;5091078;28;20215;-68
2023/07/25 02:16:07;;;;;;;7.28;3.20;;;14.20;99.90;;;;;;5091495;28;20237;-68
2023/07/25 02:18:34;;;;;;;7.63;2.95;;;14.10;99.90;;;;;;5093154;28;20218;-68
2023/07/25 02:21:01;;;;;;;5.10;2.72;;;14.10;99.90;;;;;;5073140;28;20223;-69
2023/07/25 02:23:28;;;;;;;5.63;2.92;;;14.10;99.90;;;;;;5089118;28;20826;-68
2023/07/25 02:25:55;;;;;;;5.45;2.50;;;14.10;99.90;;;;;;5090333;28;20223;-69
2023/07/25 02:28:22;;;;;;;4.45;2.30;;;14.00;99.90;;;;;;5087171;28;20350;-68
2023/07/25 02:30:49;;;;;;;3.65;2.60;;;14.10;99.90;;;;;;5083172;28;20266;-69
2023/07/25 02:33:17;;;;;;;4.60;2.70;;;14.10;99.90;;;;;;5088135;28;20199;-69
2023/07/25 02:35:44;;;;;;;4.65;2.53;;;13.90;99.90;;;;;;5070701;28;20226;-69
2023/07/25 02:38:11;;;;;;;7.50;3.05;;;13.90;99.90;;;;;;5091392;28;20640;-69
2023/07/25 02:40:38;;;;;;;5.50;3.05;;;13.90;99.90;;;;;;5091812;28;20225;-68
2023/07/25 02:43:07;;;;;;;6.30;2.78;;;13.80;99.90;;;;;;5091662;28;20215;-68
2023/07/25 02:45:34;;;;;;;14.45;3.20;;;13.80;99.90;;;;;;5091953;28;20629;-69
2023/07/25 02:48:01;;;;;;;5.05;3.03;;;13.70;99.90;;;;;;5095040;28;20230;-69
2023/07/25 02:50:29;;;;;;;6.00;3.15;;;13.70;99.90;;;;;;5090714;28;20196;-69
2023/07/25 02:52:55;;;;;;;5.80;2.85;;;13.70;99.90;;;;;;5072097;28;21279;-68
2023/07/25 02:55:22;;;;;;;5.95;3.03;;;13.60;99.90;;;;;;5091415;28;20220;-69
2023/07/25 02:57:49;;;;;;;6.18;2.63;;;13.60;99.90;;;;;;5094423;28;20828;-69
2023/07/25 03:00:16;;;;;;;10.57;3.28;;;13.60;99.90;;;;;;5084107;28;20223;-69
2023/07/25 03:02:43;;;;;;;4.18;2.83;;;13.60;99.90;;;;;;5093356;28;20227;-68
2023/07/25 03:05:10;;;;;;;5.93;3.38;;;13.60;99.90;;;;;;5092476;27;20230;-69
2023/07/25 03:07:38;;;;;;;5.38;3.05;;;13.60;99.90;;;;;;5072424;28;20219;-69
2023/07/25 03:10:06;;;;;;;6.28;2.72;;;13.40;99.90;;;;;;5088880;28;20216;-69
2023/07/25 03:12:33;;;;;;;6.57;3.45;;;13.50;99.90;;;;;;5092907;28;20223;-69
2023/07/25 03:15:00;;;;;;;5.63;3.10;;;13.40;99.90;;;;;;5094832;28;20711;-72
2023/07/25 03:17:27;;;;;;;10.55;2.97;;;13.40;99.90;;;;;;5095059;28;20723;-68
2023/07/25 03:19:54;;;;;;;8.23;3.15;;;13.40;99.90;;;;;;5095050;28;20195;-68
2023/07/25 03:22:21;;;;;;;5.75;2.92;;;13.40;99.90;;;;;;5061099;28;20227;-69
2023/07/25 03:24:50;;;;;;;7.57;3.70;;;13.30;99.90;;;;;;5096065;28;20578;-69
2023/07/25 03:27:17;;;;;;;4.25;3.10;;;13.30;99.90;;;;;;5091979;28;20199;-69
2023/07/25 03:29:44;;;;;;;10.23;3.22;;;13.30;99.90;;;;;;5097373;28;20262;-68
2023/07/25 03:32:11;;;;;;;3.75;3.10;;;13.20;99.90;;;;;;5092524;28;20250;-68
2023/07/25 03:34:38;;;;;;;5.88;3.70;;;13.30;99.90;;;;;;5092040;28;20211;-68
2023/07/25 03:37:05;;;;;;;8.18;3.30;;;13.10;99.90;;;;;;5086734;28;20231;-68
2023/07/25 03:39:32;;;;;;;4.70;2.88;;;13.30;99.90;;;;;;5083825;28;20206;-68
2023/07/25 03:42:00;;;;;;;8.15;3.47;;;13.20;99.90;;;;;;5083662;28;20606;-68
2023/07/25 03:44:27;;;;;;;5.28;2.80;;;14.20;99.90;;;;;;5094505;28;20195;-68
2023/07/25 03:46:54;;;;;;;10.18;3.22;;;13.20;99.90;;;;;;5094798;28;20214;-68
2023/07/25 03:49:20;;;;;;;15.98;3.90;;;13.20;99.90;;;;;;5092980;28;20192;-68
2023/07/25 03:51:47;;;;;;;10.65;3.22;;;13.20;99.90;;;;;;5093094;28;20204;-69
2023/07/25 03:54:14;;;;;;;7.30;2.97;;;13.10;99.90;;;;;;5071156;28;20790;-68
2023/07/25 03:56:41;;;;;;;9.85;3.42;;;13.10;99.90;;;;;;5089306;28;20230;-68
2023/07/25 03:59:09;;;;;;;5.90;3.05;;;13.10;99.90;;;;;;5092762;28;20195;-69
2023/07/25 04:01:36;;;;;;;5.05;3.22;;;13.20;99.90;;;;;;5095307;28;20211;-68
2023/07/25 04:04:03;;;;;;;12.10;2.97;;;13.10;99.90;;;;;;5091647;28;20196;-69
2023/07/25 04:06:29;;;;;;;4.10;2.83;;;13.10;99.90;;;;;;5091501;28;20668;-68
2023/07/25 04:08:56;;;;;;;8.38;3.00;;;13.10;99.90;;;;;;5093429;28;20210;-68
2023/07/25 04:11:23;;;;;;;7.57;3.15;;;13.20;99.90;;;;;;5068029;28;20204;-69
2023/07/25 04:13:50;;;;;;;7.88;3.30;;;13.20;99.90;;;;;;5093841;28;20206;-68
2023/07/25 04:16:18;;;;;;;6.65;3.25;;;13.10;99.90;;;;;;5089852;28;20195;-69
2023/07/25 04:18:45;;;;;;;11.38;3.10;;;13.10;99.90;;;;;;5095663;27;20676;-69
2023/07/25 04:21:12;;;;;;;10.07;3.00;;;13.10;99.90;;;;;;5091587;28;20192;-68
2023/07/25 04:23:38;;;;;;;9.43;3.72;;;13.10;99.90;;;;;;5094249;28;20221;-69
2023/07/25 04:26:05;;;;;;;8.23;3.28;;;13.20;99.90;;;;;;5071502;28;20214;-68
2023/07/25 04:28:32;;;;;;;9.45;3.42;;;13.20;99.90;;;;;;5087921;28;20227;-68
2023/07/25 04:30:59;;;;;;;4.82;2.70;;;13.20;99.90;;;;;;5094828;28;20191;-69
2023/07/25 04:33:27;;;;;;;8.05;3.13;;;14.30;99.90;;;;;;5091866;28;20198;-68
2023/07/25 04:35:54;;;;;;;8.23;2.75;;;13.20;99.90;;;;;;5093280;28;20203;-68
2023/07/25 04:38:21;;;;;;;13.88;3.20;;;13.20;99.90;;;;;;5085391;28;20223;-68
2023/07/25 04:40:47;;;;;;;4.97;3.05;;;13.20;99.90;;;;;;5075004;28;20597;-69
2023/07/25 04:43:14;;;;;;;6.93;3.50;;;13.20;99.90;;;;;;5077955;28;20783;-69
2023/07/25 04:45:41;;;;;;;5.85;2.85;;;13.20;99.90;;;;;;5094648;28;20196;-68
2023/07/25 04:48:08;;;;;;;9.18;3.15;;;13.00;99.90;;;;;;5090160;28;20199;-68
2023/07/25 04:50:36;;;;;;;6.55;3.20;;;13.20;99.90;;;;;;5094269;27;20207;-68
2023/07/25 04:53:03;;;;;;;6.18;3.58;;;13.30;99.90;;;;;;5091222;28;20195;-68
2023/07/25 04:55:30;;;;;;;6.90;3.30;;;13.10;99.90;;;;;;5092277;28;20215;-68
2023/07/25 04:57:57;;;;;;;6.65;3.47;;;14.10;99.90;;;;;;5072802;28;20331;-69
2023/07/25 05:00:24;;;;;;;7.93;3.28;;;13.10;99.90;;;;;;5085344;28;20192;-68
2023/07/25 05:02:51;;;;;;;10.02;2.92;;;13.10;99.90;;;;;;5094348;28;20203;-68
2023/07/25 05:05:17;;;;;;;5.10;3.50;;;13.10;99.90;;;;;;5090071;28;20200;-68
2023/07/25 05:07:46;;;;;;;11.23;3.38;;;13.20;99.90;;;;;;5090060;28;20278;-70
2023/07/25 05:10:12;;;;;;;4.90;3.17;;;13.20;99.90;;;;;;5087278;28;20212;-69
2023/07/25 05:12:39;;;;;;;9.93;3.10;;;13.20;99.90;;;;;;5071953;28;20222;-69
2023/07/25 05:15:07;;;;;;;8.52;3.85;;;13.20;99.90;;;;;;5079859;28;20208;-68
2023/07/25 05:17:33;;;;;;;5.60;2.88;;;13.20;99.90;;;;;;5092291;28;20234;-68
2023/07/25 05:20:00;;;;;;;12.57;3.05;;;13.20;99.90;;;;;;5088569;28;20207;-68
2023/07/25 05:22:27;;;;;;;8.80;2.90;;;13.20;99.90;;;;;;5092354;28;20272;-68
2023/07/25 05:24:55;;;;;;;4.38;2.70;;;13.20;99.90;;;;;;5093610;28;20205;-68
2023/07/25 05:27:22;;;;;;;6.03;3.28;;;13.60;99.90;;;;;;5093758;28;20208;-68
2023/07/25 05:29:49;;;;;;;4.47;3.53;;;13.30;99.90;;;;;;5067522;28;20231;-68
2023/07/25 05:32:16;;;;;;;5.65;3.08;;;13.40;99.90;;;;;;5086513;28;20195;-68
2023/07/25 05:34:42;;;;;;;7.30;2.95;;;13.40;99.90;;;;;;5094865;28;20540;-68
2023/07/25 05:37:09;;;;;;;6.45;3.05;;;13.40;99.90;;;;;;5084782;28;20212;-68
2023/07/25 05:39:36;;;;;;;10.00;3.13;;;13.40;99.90;;;;;;5095889;28;20205;-68
2023/07/25 05:42:04;;;;;;;3.55;2.55;;;13.50;99.90;;;;;;5092510;28;20192;-69
2023/07/25 05:44:31;;;;;;;7.10;3.17;;;13.50;99.90;;;;;;5070608;28;20228;-68
2023/07/25 05:47:00;;;;;;;6.05;3.40;;;13.70;99.90;;;;;;5089389;28;20781;-73
2023/07/25 05:49:27;;;;;;;5.40;3.08;;;13.50;99.90;;;;;;5094613;28;20747;-68
2023/07/25 05:51:54;;;;;;;10.18;3.13;;;13.60;99.90;;;;;;5090296;28;20703;-68
2023/07/25 05:54:21;;;;;;;6.05;2.65;;;13.70;99.90;;;;;;5088089;28;20215;-69
2023/07/25 05:56:48;;;;;;;5.65;3.22;;;;;;;;;;5089892;28;20231;-68
2023/07/25 05:59:17;;;;;;;6.18;2.78;;;;;;;;;;5066065;28;20228;-68
2023/07/25 06:01:43;;;;;;;4.95;2.92;;;13.80;99.90;;;;;;5092763;28;20722;-68
2023/07/25 06:04:13;;;;;;;7.35;3.10;;;13.90;99.90;;;;;;5087791;28;20638;-68
2023/07/25 06:06:40;;;;;;;3.05;2.70;;;13.90;99.90;;;;;;5094261;28;20234;-68
2023/07/25 06:09:07;;;;;;;8.35;3.15;;;14.00;99.90;;;;;;5092093;28;20223;-69
2023/07/25 06:11:33;;;;;;;4.45;2.67;;;14.10;99.90;;;;;;5085983;28;20212;-68
2023/07/25 06:14:00;;;;;;;8.85;3.47;;;14.10;99.90;;;;;;5080359;28;20205;-68
2023/07/25 06:16:29;;;;;;;6.68;3.00;;;14.10;99.90;;;;;;5093302;28;20276;-68
2023/07/25 06:18:55;;;;;;;7.60;2.95;;;14.30;99.90;;;;;;5094448;28;20234;-69
2023/07/25 06:21:22;;;;;;;10.52;3.47;;;14.30;99.90;;;;;;5091553;28;20352;-68
2023/07/25 06:23:49;;;;;;;5.90;3.20;;;14.30;99.90;;;;;;5095084;28;20207;-68
2023/07/25 06:26:16;;;;;;;6.13;2.80;;;14.50;99.90;;;;;;5093513;28;20200;-68
2023/07/25 06:28:43;;;;;;;8.60;2.95;;;14.30;99.90;;;;;;5091720;28;20610;-69
2023/07/25 06:31:10;;;;;;;7.43;3.28;;;14.40;99.90;;;;;;5074987;28;20207;-69
2023/07/25 06:33:38;;;;;;;8.20;3.35;;;14.40;99.90;;;;;;5092761;27;20575;-68
2023/07/25 06:36:05;;;;;;;6.10;2.80;;;14.40;99.90;;;;;;5092909;28;20220;-68
2023/07/25 06:38:32;;;;;;;9.93;3.20;;;14.30;99.90;;;;;;5092953;28;20232;-68
2023/07/25 06:40:58;;;;;;;6.15;3.53;;;14.40;99.90;;;;;;5090919;28;20227;-69
2023/07/25 06:43:25;;;;;;;14.85;3.47;;;14.50;99.90;;;;;;5084180;28;20227;-69
2023/07/25 06:45:52;;;;;;;7.78;2.70;;;14.50;99.90;;;;;;5075502;28;20227;-68
2023/07/25 06:48:19;;;;;;;9.73;2.63;;;14.50;99.90;;;;;;5092219;28;20287;-68
2023/07/25 06:50:48;;;;;;;6.28;2.67;;;14.50;99.90;;;;;;5097299;28;20203;-69
2023/07/25 06:53:15;;;;;;;6.78;3.20;;;14.40;99.90;;;;;;5093679;28;20188;-69
2023/07/25 06:55:41;;;;;;;7.10;2.90;;;14.40;99.90;;;;;;5094357;28;20215;-68
2023/07/25 06:58:08;;;;;;;9.80;2.33;;;14.40;99.90;;;;;;5091559;28;20219;-69
2023/07/25 07:00:37;;;;;;;7.72;2.40;;;14.40;99.90;;;;;;5088078;28;20200;-68
2023/07/25 07:03:05;;;;;;;4.70;2.70;;;14.40;99.90;;;;;;5072203;28;20212;-69
2023/07/25 07:05:32;;;;;;;7.20;3.00;;;14.40;99.90;;;;;;5095161;28;20788;-68
2023/07/25 07:08:00;;;;;;;6.43;2.72;;;14.30;99.90;;;;;;5092605;28;21648;-71
2023/07/25 07:10:27;;;;;;;7.78;2.10;;;14.30;99.90;;;;;;5095397;28;20211;-68
2023/07/25 07:12:54;;;;;;;7.93;2.40;;;14.30;99.90;;;;;;5093558;28;20211;-68
2023/07/25 07:15:23;;;;;;;2.80;1.73;;;14.10;99.90;;;;;;5090872;28;20239;-68
2023/07/25 07:17:51;;;;;;;4.30;2.30;;;14.10;99.90;;;;;;5072604;28;20241;-68
2023/07/25 07:20:18;;;;;;;5.55;1.55;;;14.00;99.90;;;;;;5092994;27;20219;-68
2023/07/25 07:22:45;;;;;;;5.38;1.80;;;14.00;99.90;;;;;;5083187;28;20235;-68
2023/07/25 07:25:13;;;;;;;6.97;1.80;;;13.80;99.90;;;;;;5094995;28;20623;-68
2023/07/25 07:27:40;;;;;;;3.90;1.38;;;13.90;99.90;;;;;;5091342;28;20236;-68
2023/07/25 07:30:08;;;;;;;5.45;2.15;;;13.90;99.90;;;;;;5092015;28;20226;-68
2023/07/25 07:32:35;;;;;;;3.38;1.52;;;13.90;99.90;;;;;;5075442;28;21279;-68
2023/07/25 07:35:02;;;;;;;3.45;1.50;;;14.10;99.90;;;;;;5088409;28;20215;-69
2023/07/25 07:37:28;;;;;;;3.10;1.63;;;14.20;99.90;;;;;;5094021;28;20219;-68
2023/07/25 07:39:55;;;;;;;4.18;1.65;;;14.30;99.90;;;;;;5090296;28;20224;-68
2023/07/25 07:42:23;;;;;;;4.70;1.60;;;14.50;99.90;;;;;;5093741;28;20214;-68
2023/07/25 07:44:50;;;;;;;3.15;1.67;;;;;;;;;;5094100;28;20220;-69
2023/07/25 07:47:17;;;;;;;2.67;1.67;;;14.70;99.90;;;;;;5091541;28;20215;-69
2023/07/25 07:49:44;;;;;;;2.22;1.50;;;14.60;99.90;;;;;;5075799;27;20642;-68
2023/07/25 07:52:11;;;;;;;4.10;1.60;;;14.70;99.90;;;;;;5093324;28;20211;-69
2023/07/25 07:54:37;;;;;;;2.95;1.50;;;14.70;99.90;;;;;;5096266;28;20206;-68
2023/07/25 07:57:04;;;;;;;4.68;1.40;;;14.90;99.90;;;;;;5083544;28;20199;-69
2023/07/25 07:59:33;;;;;;;5.30;1.30;;;14.90;99.90;;;;;;5098928;28;20246;-68
2023/07/25 08:02:00;;;;;;;4.00;1.25;;;;;;;;;;5092269;28;20215;-69
2023/07/25 08:04:26;;;;;;;2.78;1.63;;;14.90;99.90;;;;;;5072740;28;20223;-68
2023/07/25 08:06:53;;;;;;;3.55;1.52;;;15.00;99.90;;;;;;5093737;28;20203;-69
2023/07/25 08:09:20;;;;;;;3.08;1.30;;;15.80;99.90;;;;;;5091362;28;20215;-68
2023/07/25 08:11:48;;;;;;;3.25;1.40;;;15.00;99.90;;;;;;5094275;28;20211;-68
2023/07/25 08:14:14;;;;;;;1.60;1.10;;;15.10;99.90;;;;;;5091648;28;20219;-68
2023/07/25 08:16:42;;;;;;;5.28;1.50;;;15.10;99.90;;;;;;5093826;28;20206;-69
2023/07/25 08:19:09;;;;;;;2.25;1.48;;;15.30;99.90;;;;;;5090857;28;20617;-68
2023/07/25 08:21:36;;;;;;;10.43;1.40;;;15.30;99.90;;;;;;5073255;28;20203;-69
2023/07/25 08:24:03;;;;;;;2.80;1.35;;;15.40;99.90;;;;;;5092199;28;21462;-69
2023/07/25 08:26:30;;;;;;;3.28;1.35;;;15.40;99.90;;;;;;5093708;28;20202;-69
2023/07/25 08:28:57;;;;;;;8.60;1.60;;;15.40;99.90;;;;;;5085462;28;20241;-69
2023/07/25 08:31:24;;;;;;;4.22;1.90;;;15.50;99.90;;;;;;5093175;28;20202;-68
2023/07/25 08:33:52;;;;;;;1.92;1.27;;;15.50;99.90;;;;;;5094937;28;20298;-69
2023/07/25 08:36:18;;;;;;;3.97;1.58;;;16.10;99.90;;;;;;5070807;28;20229;-69
2023/07/25 08:38:45;;;;;;;3.50;1.48;;;15.80;99.90;;;;;;5088692;28;20707;-68
2023/07/25 08:41:16;;;;;;;10.20;1.70;;;15.80;99.90;;;;;;5091815;28;20200;-68
2023/07/25 08:43:44;;;;;;;11.00;2.10;;;15.80;99.90;;;;;;5085424;28;20207;-68
2023/07/25 08:46:13;;;;;;;4.90;1.63;;;16.00;99.90;;;;;;5093033;28;20889;-69
2023/07/25 08:48:41;;;;;;;8.93;1.80;;;16.00;99.90;;;;;;5092499;28;20203;-69
2023/07/25 08:51:18;;;;;;;4.57;1.70;;;16.10;99.90;;;;;;5090955;28;20286;-68
2023/07/25 08:53:53;;;;;;;5.15;1.52;;;16.30;99.90;;;;;;5073075;28;20219;-68
2023/07/25 08:56:21;;;;;;;8.02;1.50;;;16.20;99.90;;;;;;5089374;28;20207;-69
2023/07/25 08:58:49;;;;;;;5.63;1.65;;;16.20;99.90;;;;;;5095096;28;20231;-69
2023/07/25 09:01:17;;;;;;;3.75;1.52;;;16.20;99.90;;;;;;5086514;28;20192;-69
2023/07/25 09:03:45;;;;;;;2.67;1.58;;;16.30;99.90;;;;;;5092649;28;20291;-69
2023/07/25 09:06:14;;;;;;;5.00;1.70;;;16.20;99.90;;;;;;5091469;28;20196;-69
2023/07/25 09:08:41;;;;;;;4.25;1.50;;;16.30;99.90;;;;;;5072567;28;20291;-69
2023/07/25 09:11:10;;;;;;;4.85;1.73;;;16.20;99.90;;;;;;5089378;28;20250;-68
2023/07/25 09:13:37;;;;;;;7.15;1.70;;;16.30;99.90;;;;;;5090325;28;20253;-68
2023/07/25 09:16:04;;;;;;;5.57;1.83;;;16.30;99.90;;;;;;5089507;28;20590;-68
2023/07/25 09:18:31;;;;;;;4.85;2.10;;;16.40;99.90;;;;;;5080747;28;20227;-68
2023/07/25 09:20:59;;;;;;;5.72;1.63;;;16.50;99.90;;;;;;5090457;28;20192;-68
2023/07/25 09:23:27;;;;;;;4.53;1.63;;;16.50;99.90;;;;;;5073753;28;20625;-68
2023/07/25 09:26:04;;;;;;;8.40;1.95;;;16.70;99.90;;;;;;5091650;28;20199;-68
2023/07/25 09:28:31;;;;;;;3.88;2.03;;;16.60;99.90;;;;;;5090611;28;20231;-69
2023/07/25 09:30:58;;;;;;;5.13;2.03;;;16.70;99.90;;;;;;5088703;28;20191;-71
2023/07/25 09:33:27;;;;;;;5.60;1.92;;;16.70;99.90;;;;;;5091242;28;20202;-68
2023/07/25 09:35:54;;;;;;;3.53;1.52;;;16.80;99.90;;;;;;5083066;28;20204;-68
2023/07/25 09:38:21;;;;;;;5.65;1.95;;;16.80;99.90;;;;;;5093371;28;20219;-69
2023/07/25 09:40:50;;;;;;;4.85;1.80;;;16.90;99.90;;;;;;5072379;28;20212;-68
2023/07/25 09:43:23;;;;;;;3.60;1.40;;;16.90;99.90;;;;;;5094444;28;20252;-68
2023/07/25 09:45:50;;;;;;;4.78;1.67;;;16.50;99.90;;;;;;5091424;28;20218;-68
2023/07/25 09:48:17;;;;;;;2.72;1.40;;;16.60;99.90;;;;;;5090211;28;20205;-67
2023/07/25 09:50:45;;;;;;;4.65;1.70;;;16.10;99.90;;;;;;5085256;28;20242;-68
2023/07/25 09:53:13;;;;;;;5.35;1.73;;;16.10;99.90;;;;;;5094448;28;20203;-68
2023/07/25 09:55:40;;;;;;;7.85;1.98;;;15.60;99.90;;;;;;5071684;28;20203;-68
2023/07/25 09:58:09;;;;;;;3.50;1.98;;;15.50;99.90;;;;;;5093446;28;21320;-68
2023/07/25 10:00:36;;;;;;;5.22;1.90;;;15.50;99.90;;;;;;5090681;28;20207;-68
2023/07/25 10:03:03;;;;;;;4.43;1.60;;;15.40;99.90;;;;;;5091347;28;20202;-68
2023/07/25 10:05:30;;;;;;;4.68;2.15;;;15.40;99.90;;;;;;5086378;28;20596;-68
2023/07/25 10:07:58;;;;;;;4.78;1.70;;;15.50;99.90;;;;;;5089332;28;20192;-68
2023/07/25 10:10:26;;;;;;;8.43;1.80;;;15.50;99.90;;;;;;5092412;28;20276;-68
2023/07/25 10:12:53;;;;;;;5.35;1.30;;;15.60;99.90;;;;;;5071118;28;20215;-68
2023/07/25 10:15:22;;;;;;;7.13;1.75;;;15.60;99.90;;;;;;5092552;28;20200;-68
2023/07/25 10:17:49;;;;;;;2.45;1.48;;;15.90;99.90;;;;;;5088454;28;20227;-68
2023/07/25 10:20:22;;;;;;;5.10;1.23;;;15.90;99.90;;;;;;5090483;28;20318;-71
2023/07/25 10:22:50;;;;;;;7.82;1.60;;;15.90;99.90;;;;;;5093047;28;20204;-68
2023/07/25 10:25:22;;;;;;;4.07;1.20;;;16.10;99.90;;;;;;5092555;28;20245;-68
2023/07/25 10:27:55;;;;;;;5.30;1.27;;;16.00;99.90;;;;;;5074031;28;20215;-67
2023/07/25 10:30:25;;;;;;;4.22;1.20;;;16.20;99.90;;;;;;5090937;28;20211;-68
2023/07/25 10:32:53;;;;;;;5.78;1.42;;;16.30;99.90;;;;;;5091419;28;20211;-68
2023/07/25 10:35:42;;;;;;;6.53;1.70;;;16.40;99.90;;;;;;5085880;28;20721;-68
2023/07/25 10:38:10;;;;;;;7.40;1.85;;;16.30;99.90;;;;;;5091751;28;20658;-68
2023/07/25 10:40:55;;;;;;;12.43;1.88;;;16.50;99.90;;;;;;5091966;28;20227;-68
2023/07/25 10:43:22;;;;;;;7.00;1.40;;;16.40;99.90;;;;;;5073069;28;20203;-68
2023/07/25 10:45:54;;;;;;;3.30;1.27;;;16.50;99.90;;;;;;5090408;28;20943;-68
2023/07/25 10:48:32;;;;;;;7.57;1.67;;;16.70;99.90;;;;;;5090427;28;20552;-71
2023/07/25 10:51:00;;;;;;;4.03;1.42;;;16.60;99.90;;;;;;5090940;28;20290;-68
2023/07/25 10:53:27;;;;;;;3.33;1.60;;;16.90;99.90;;;;;;5083902;28;20207;-68
2023/07/25 10:56:15;;;;;;;6.55;1.55;;;16.90;99.90;;;;;;5093420;28;20209;-68
2023/07/25 10:59:05;;;;;;;3.33;1.30;;;16.50;99.90;;;;;;5068825;28;20529;-68
2023/07/25 11:01:36;;;;;;;7.00;1.35;;;17.20;99.90;;;;;;5090043;28;20203;-68
2023/07/25 11:04:29;;;;;;;7.72;1.58;;;17.20;99.90;;;;;;5088439;28;20216;-68
2023/07/25 11:06:58;;;;;;;3.20;1.20;;;17.20;99.90;;;;;;5092573;28;20219;-68
2023/07/25 11:09:27;;;;;;;5.72;1.30;;;17.00;99.90;;;;;;5087734;28;20199;-68
2023/07/25 11:11:55;;;;;;;3.38;1.45;;;17.00;99.90;;;;;;5095104;28;20283;-69
2023/07/25 11:14:23;;;;;;;5.55;1.55;;;16.90;99.90;;;;;;5079846;28;20905;-67
2023/07/25 11:16:52;;;;;;;2.80;1.30;;;16.90;99.90;;;;;;5088428;28;20250;-67
2023/07/25 11:19:25;;;;;;;3.03;1.20;;;17.00;99.90;;;;;;5091052;28;20219;-67
2023/07/25 11:21:51;;;;;;;4.03;1.27;;;17.10;99.90;;;;;;5093256;28;20226;-67
2023/07/25 11:24:19;;;;;;;3.22;1.15;;;17.40;99.90;;;;;;5095226;28;20203;-67
2023/07/25 11:26:46;;;;;;;2.78;0.93;;;17.50;99.90;;;;;;5087111;28;20665;-68
2023/07/25 11:29:14;;;;;;;4.95;1.00;;;17.70;99.90;;;;;;5088667;28;20927;-68
2023/07/25 11:31:47;;;;;;;3.50;1.27;;;17.90;99.90;;;;;;5077557;28;20660;-67
2023/07/25 11:34:16;;;;;;;2.10;0.80;;;17.90;99.90;;;;;;5093607;28;20227;-68
2023/07/25 11:36:44;;;;;;;1.27;0.85;;;17.80;99.90;;;;;;5090357;28;20203;-67
2023/07/25 11:39:12;;;;;;;3.85;1.38;;;17.70;99.90;;;;;;5092887;28;20223;-67
2023/07/25 11:41:40;;;;;;;4.55;1.10;;;17.80;99.90;;;;;;5089512;28;21211;-67
2023/07/25 11:44:11;;;;;;;5.45;1.50;;;17.90;99.90;;;;;;5094754;28;20798;-67
2023/07/25 11:46:39;;;;;;;2.25;1.00;;;17.60;99.90;;;;;;5070259;28;20242;-67
2023/07/25 11:49:06;;;;;;;3.22;1.17;;;17.60;99.90;;;;;;5091391;28;21184;-67
2023/07/25 11:51:35;;;;;;;5.45;1.23;;;17.60;99.90;;;;;;5091695;28;21151;-67
2023/07/25 11:54:02;;;;;;;5.38;1.10;;;17.70;99.90;;;;;;5094140;28;20224;-66
2023/07/25 11:56:29;;;;;;;4.35;1.25;;;17.80;99.90;;;;;;5077364;28;20216;-67
2023/07/25 11:58:55;;;;;;;1.02;0.80;;;17.90;99.90;;;;;;5092773;28;20215;-67
2023/07/25 12:01:28;;;;;;;2.97;1.00;;;18.20;99.90;;;;;;5078516;28;20874;-67
2023/07/25 12:03:55;;;;;;;3.08;1.27;;;18.20;99.90;;;;;;5093616;28;20222;-67
2023/07/25 12:06:34;;;;;;;4.03;0.98;;;18.00;99.90;;;;;;5087651;28;20800;-67
2023/07/25 12:09:02;;;;;;;3.15;0.73;;;18.20;99.90;;;;;;5092750;28;20318;-67
2023/07/25 12:11:29;;;;;;;2.88;1.48;;;18.50;99.90;;;;;;5075789;28;20216;-67
2023/07/25 12:13:57;;;;;;;5.45;1.02;;;18.50;99.90;;;;;;5092374;28;20243;-67
2023/07/25 12:16:25;;;;;;;4.78;1.10;;;18.20;99.90;;;;;;5073834;28;20219;-67
2023/07/25 12:18:53;;;;;;;5.85;1.38;;;18.30;99.90;;;;;;5090283;28;20238;-66
2023/07/25 12:21:23;;;;;;;4.68;1.13;;;;;;;;;;5090396;28;20227;-67
2023/07/25 12:23:52;;;;;;;3.97;1.20;;;17.90;99.90;;;;;;5090605;28;20223;-66
2023/07/25 12:26:21;;;;;;;2.10;1.33;;;17.80;99.90;;;;;;5089877;28;20195;-67
2023/07/25 12:28:49;;;;;;;1.55;0.95;;;17.70;99.90;;;;;;5091194;28;20228;-66
2023/07/25 12:31:16;;;;;;;6.22;1.30;;;17.70;99.90;;;;;;5093481;28;20204;-66
2023/07/25 12:33:44;;;;;;;4.18;1.25;;;17.80;99.90;;;;;;5070975;27;20223;-66
2023/07/25 12:36:12;;;;;;;2.47;1.10;;;17.90;99.90;;;;;;5091941;28;20242;-67
2023/07/25 12:38:39;;;;;;;5.72;1.70;;;17.90;99.90;;;;;;5091177;28;20195;-66
2023/07/25 12:41:07;;;;;;;3.33;1.10;;;17.90;99.90;;;;;;5094788;28;20715;-66
2023/07/25 12:43:34;;;;;;;2.15;0.98;;;18.10;99.90;;;;;;5086216;28;20223;-66
2023/07/25 12:46:02;;;;;;;4.10;1.13;;;18.10;99.90;;;;;;5092984;28;20238;-66
2023/07/25 12:48:28;;;;;;;5.10;1.23;;;18.40;99.90;;;;;;5072017;28;20219;-67
2023/07/25 12:50:55;;;;;;;3.47;1.30;;;18.40;99.90;;;;;;5092251;28;20222;-66